DTTJ

Djerba Zarzis International Airport

Djerba, Tunisia
METAR DTTJ 182230Z 06008KT CAVOK 24/16 Q1015 NOSIG
Observed Flight Rules
Jun-18 @ 22:30 UTC (16 minutes ago) Visual Flight Rules
Wind Visibility Clouds
60° at 8 knots 10,000+ meters
  • Clear skies
Temperatures Readings
Current 24°C / 75°F
Dewpoint 16°C / 61°F
Humidity 61%
Altimeter 29.97" Hg
Pressure 1015 hPa
Elevation 4
METAR DTTJ 182230Z 06008KT CAVOK 24/16 Q1015 NOSIG
Observed Flight Rules
Jun-18 @ 22:30 UTC
(16 minutes ago)
VFR
Wind Visibility
60° at 8 knots 10,000+ meters
Clouds
  • Clear skies
Temperature Dewpoint
24°C / 75°F 16°C / 61°F
Humidity Altimeter Pressure
61% 29.97" Hg 1015 hPa